createdAt,value
2022-09-23T00:01:30.768Z,100.00
2022-09-23T00:03:32.924Z,100.00
2022-09-23T00:05:34.740Z,100.00
2022-09-23T00:07:36.227Z,100.00
2022-09-23T00:09:38.846Z,100.00
2022-09-23T00:11:40.307Z,100.00
2022-09-23T00:13:43.981Z,100.00
2022-09-23T00:15:45.515Z,100.00
2022-09-23T00:17:47.017Z,100.00
2022-09-23T00:19:48.463Z,100.00
2022-09-23T00:21:49.910Z,100.00
2022-09-23T00:23:51.348Z,100.00
2022-09-23T00:25:57.901Z,100.00
2022-09-23T00:27:59.379Z,100.00
2022-09-23T00:30:01.049Z,100.00
2022-09-23T00:32:02.711Z,100.00
2022-09-23T00:34:04.232Z,100.00
2022-09-23T00:36:06.507Z,100.00
2022-09-23T00:38:08.042Z,100.00
2022-09-23T00:40:09.791Z,100.00
2022-09-23T00:42:14.751Z,100.00
2022-09-23T00:44:42.527Z,100.00
2022-09-23T00:46:43.969Z,100.00
2022-09-23T00:48:45.810Z,100.00
2022-09-23T00:50:51.029Z,100.00
2022-09-23T00:52:56.319Z,100.00
2022-09-23T00:55:00.537Z,100.00
2022-09-23T00:57:02.539Z,100.00
2022-09-23T00:59:06.896Z,100.00
2022-09-23T01:01:08.778Z,100.00
2022-09-23T01:03:10.313Z,100.00
2022-09-23T01:05:11.609Z,100.00
2022-09-23T01:07:13.071Z,100.00
2022-09-23T01:09:14.551Z,100.00
2022-09-23T01:11:30.211Z,100.00
2022-09-23T01:13:39.830Z,100.00
2022-09-23T01:15:49.290Z,100.00
2022-09-23T01:17:57.828Z,100.00
2022-09-23T01:20:29.935Z,100.00
2022-09-23T01:22:39.216Z,100.00
2022-09-23T01:25:09.954Z,100.00
2022-09-23T01:27:23.028Z,100.00
2022-09-23T01:29:53.795Z,100.00
2022-09-23T01:32:00.202Z,100.00
2022-09-23T01:34:09.466Z,100.00
2022-09-23T01:36:21.988Z,100.00
2022-09-23T01:38:35.709Z,100.00
2022-09-23T01:40:48.956Z,100.00
2022-09-23T01:42:55.775Z,100.00
2022-09-23T01:45:01.657Z,100.00
2022-09-23T01:47:08.104Z,100.00
2022-09-23T01:49:16.494Z,100.00
2022-09-23T01:51:23.337Z,100.00
2022-09-23T01:53:31.487Z,100.00
2022-09-23T01:55:38.450Z,100.00
2022-09-23T01:57:44.432Z,100.00
2022-09-23T01:59:50.126Z,100.00
2022-09-23T02:01:56.859Z,100.00
2022-09-23T02:04:05.951Z,100.00
2022-09-23T02:06:12.894Z,100.00
2022-09-23T02:08:19.372Z,100.00
2022-09-23T02:10:25.700Z,100.00
2022-09-23T02:12:29.660Z,100.00
2022-09-23T02:14:37.010Z,100.00
2022-09-23T02:16:43.514Z,100.00
2022-09-23T02:18:51.564Z,100.00
2022-09-23T02:21:00.016Z,100.00
2022-09-23T02:23:05.567Z,100.00
2022-09-23T02:25:08.975Z,100.00
2022-09-23T02:27:18.244Z,100.00
2022-09-23T02:29:22.152Z,100.00
2022-09-23T02:31:32.885Z,100.00
2022-09-23T02:33:39.687Z,100.00
2022-09-23T02:35:48.752Z,100.00
2022-09-23T02:38:01.632Z,100.00
2022-09-23T02:40:14.498Z,100.00
2022-09-23T02:42:21.897Z,100.00
2022-09-23T02:44:23.785Z,100.00
2022-09-23T02:46:26.099Z,100.00
2022-09-23T02:48:33.897Z,100.00
2022-09-23T02:50:36.616Z,100.00
2022-09-23T02:52:38.218Z,100.00
2022-09-23T02:54:41.157Z,100.00
2022-09-23T02:56:43.096Z,100.00
2022-09-23T02:58:44.835Z,100.00
2022-09-23T03:00:59.019Z,100.00
2022-09-23T03:03:06.314Z,100.00
2022-09-23T03:05:18.978Z,100.00
2022-09-23T03:07:30.268Z,100.00
2022-09-23T03:09:35.486Z,100.00
2022-09-23T03:11:41.589Z,100.00
2022-09-23T03:14:01.208Z,100.00
2022-09-23T03:16:12.360Z,100.00
2022-09-23T03:18:20.547Z,100.00
2022-09-23T03:20:28.215Z,100.00
2022-09-23T03:22:35.120Z,100.00
2022-09-23T03:24:39.442Z,100.00
2022-09-23T03:26:46.549Z,100.00
2022-09-23T03:28:49.653Z,100.00
2022-09-23T03:30:53.240Z,100.00
2022-09-23T03:32:58.242Z,100.00
2022-09-23T03:35:01.888Z,100.00
2022-09-23T03:37:10.653Z,100.00
2022-09-23T03:39:20.020Z,100.00
2022-09-23T03:41:28.032Z,100.00
2022-09-23T03:43:36.519Z,100.00
2022-09-23T03:45:40.462Z,100.00
2022-09-23T03:47:41.972Z,100.00
2022-09-23T03:49:46.380Z,100.00
2022-09-23T03:51:47.832Z,100.00
2022-09-23T03:53:49.588Z,100.00
2022-09-23T03:55:51.052Z,100.00
2022-09-23T03:57:52.618Z,100.00
2022-09-23T03:59:55.261Z,100.00
2022-09-23T04:01:57.526Z,100.00
2022-09-23T04:03:59.068Z,100.00
2022-09-23T04:06:00.363Z,100.00
2022-09-23T04:08:02.075Z,100.00
2022-09-23T04:10:04.141Z,100.00
2022-09-23T04:12:06.124Z,100.00
2022-09-23T04:14:07.848Z,100.00
2022-09-23T04:16:10.677Z,100.00
2022-09-23T04:18:12.154Z,100.00
2022-09-23T04:20:13.695Z,100.00
2022-09-23T04:22:15.000Z,100.00
2022-09-23T04:24:17.197Z,100.00
2022-09-23T04:26:18.741Z,100.00
2022-09-23T04:28:20.210Z,100.00
2022-09-23T04:30:21.667Z,100.00
2022-09-23T04:32:24.632Z,100.00
2022-09-23T04:34:26.148Z,100.00
2022-09-23T04:36:27.444Z,100.00
2022-09-23T04:38:28.980Z,100.00
2022-09-23T04:40:30.301Z,100.00
2022-09-23T04:42:31.809Z,100.00
2022-09-23T04:44:33.281Z,100.00
2022-09-23T04:46:35.001Z,100.00
2022-09-23T04:48:39.274Z,100.00
2022-09-23T04:50:40.814Z,100.00
2022-09-23T04:52:42.094Z,100.00
2022-09-23T04:54:43.582Z,100.00
2022-09-23T04:56:45.067Z,100.00
2022-09-23T04:58:47.115Z,100.00
2022-09-23T05:00:48.731Z,100.00
2022-09-23T05:02:50.953Z,100.00
2022-09-23T05:04:53.797Z,100.00
2022-09-23T05:06:57.476Z,100.00
2022-09-23T05:09:05.066Z,100.00
2022-09-23T05:11:06.975Z,100.00
2022-09-23T05:13:08.732Z,100.00
2022-09-23T05:15:10.346Z,100.00
2022-09-23T05:17:11.675Z,100.00
2022-09-23T05:19:13.192Z,100.00
2022-09-23T05:21:17.176Z,100.00
2022-09-23T05:23:18.607Z,100.00
2022-09-23T05:25:20.085Z,100.00
2022-09-23T05:27:21.840Z,100.00
2022-09-23T05:29:23.307Z,100.00
2022-09-23T05:31:26.563Z,100.00
2022-09-23T05:33:28.125Z,100.00
2022-09-23T05:35:29.408Z,100.00
2022-09-23T05:37:32.306Z,100.00
2022-09-23T05:39:33.860Z,100.00
2022-09-23T05:41:35.356Z,100.00
2022-09-23T05:43:37.130Z,100.00
2022-09-23T05:45:38.614Z,100.00
2022-09-23T05:47:39.899Z,100.00
2022-09-23T05:49:58.720Z,99.06
2022-09-23T05:52:01.704Z,100.00
2022-09-23T05:54:05.538Z,100.00
2022-09-23T05:56:07.775Z,100.00
2022-09-23T05:58:09.444Z,100.00
2022-09-23T06:00:11.790Z,100.00
2022-09-23T06:02:13.310Z,99.99
2022-09-23T06:04:14.681Z,100.00
2022-09-23T06:06:17.900Z,100.00
2022-09-23T06:08:19.539Z,100.00
2022-09-23T06:10:22.345Z,100.00
2022-09-23T06:12:23.921Z,100.00
2022-09-23T06:14:25.332Z,100.00
2022-09-23T06:16:27.036Z,100.00
2022-09-23T06:18:28.504Z,100.00
2022-09-23T06:20:29.994Z,100.00
2022-09-23T06:22:31.307Z,100.00
2022-09-23T06:24:32.753Z,99.86
2022-09-23T06:26:36.075Z,98.97
2022-09-23T06:28:39.270Z,97.68
2022-09-23T06:30:40.709Z,97.06
2022-09-23T06:32:42.163Z,97.96
2022-09-23T06:34:51.128Z,96.93
2022-09-23T06:36:53.296Z,96.87
2022-09-23T06:38:54.616Z,96.90
2022-09-23T06:40:57.889Z,97.23
2022-09-23T06:43:01.806Z,96.55
2022-09-23T06:45:03.572Z,95.93
2022-09-23T06:47:05.239Z,96.98
2022-09-23T06:49:06.917Z,96.90
2022-09-23T06:51:11.541Z,95.84
2022-09-23T06:53:13.037Z,94.34
2022-09-23T06:55:14.445Z,93.63
2022-09-23T06:57:15.902Z,93.58
2022-09-23T06:59:18.608Z,92.84
2022-09-23T07:01:20.263Z,92.04
2022-09-23T07:03:21.774Z,91.77
2022-09-23T07:05:23.438Z,92.73
2022-09-23T07:07:24.871Z,91.71
2022-09-23T07:09:26.240Z,90.04
2022-09-23T07:11:27.710Z,90.01
2022-09-23T07:13:30.017Z,89.72
2022-09-23T07:15:32.913Z,91.32
2022-09-23T07:17:34.549Z,92.45
2022-09-23T07:19:36.061Z,90.30
2022-09-23T07:21:38.668Z,88.43
2022-09-23T07:23:40.006Z,87.02
2022-09-23T07:25:41.421Z,85.91
2022-09-23T07:27:42.834Z,85.99
2022-09-23T07:29:48.799Z,85.53
2022-09-23T07:31:52.595Z,87.64
2022-09-23T07:33:56.645Z,87.39
2022-09-23T07:35:58.181Z,87.69
2022-09-23T07:37:59.788Z,87.16
2022-09-23T07:40:01.628Z,86.20
2022-09-23T07:42:03.569Z,85.50
2022-09-23T07:44:05.430Z,84.60
2022-09-23T07:46:09.557Z,85.21
2022-09-23T07:48:12.485Z,83.67
2022-09-23T07:50:13.912Z,86.35
2022-09-23T07:52:15.295Z,85.88
2022-09-23T07:54:16.976Z,85.65
2022-09-23T07:56:19.541Z,82.81
2022-09-23T07:58:21.304Z,81.41
2022-09-23T08:00:22.861Z,83.60
2022-09-23T08:02:24.447Z,82.82
2022-09-23T08:04:31.055Z,80.95
2022-09-23T08:06:33.613Z,79.65
2022-09-23T08:08:35.616Z,80.10
2022-09-23T08:10:37.068Z,80.40
2022-09-23T08:12:38.643Z,80.43
2022-09-23T08:14:40.097Z,80.36
2022-09-23T08:16:41.410Z,81.03
2022-09-23T08:18:44.081Z,78.86
2022-09-23T08:20:47.690Z,79.45
2022-09-23T08:22:50.300Z,79.07
2022-09-23T08:24:52.591Z,80.30
2022-09-23T08:26:55.965Z,78.93
2022-09-23T08:28:57.249Z,77.66
2022-09-23T08:30:59.437Z,75.79
2022-09-23T08:33:01.248Z,74.79
2022-09-23T08:35:02.756Z,77.03
2022-09-23T08:37:09.432Z,77.55
2022-09-23T08:39:13.877Z,76.97
2022-09-23T08:41:24.497Z,77.41
2022-09-23T08:43:30.929Z,76.19
2022-09-23T08:45:35.430Z,73.70
2022-09-23T08:47:44.210Z,73.75
2022-09-23T08:49:53.876Z,74.70
2022-09-23T08:51:56.346Z,75.21
2022-09-23T08:53:59.934Z,75.61
2022-09-23T08:56:05.753Z,74.69
2022-09-23T08:58:27.114Z,74.63
2022-09-23T09:00:36.997Z,73.59
2022-09-23T09:02:38.525Z,73.43
2022-09-23T09:04:42.786Z,75.02
2022-09-23T09:06:53.562Z,75.43
2022-09-23T09:09:00.413Z,73.46
2022-09-23T09:11:03.061Z,73.76
2022-09-23T09:13:09.374Z,72.21
2022-09-23T09:15:13.949Z,71.04
2022-09-23T09:17:21.731Z,70.09
2022-09-23T09:19:40.905Z,71.07
2022-09-23T09:21:45.105Z,68.77
2022-09-23T09:23:54.337Z,68.39
2022-09-23T09:26:00.855Z,68.69
2022-09-23T09:28:08.755Z,67.65
2022-09-23T09:30:12.556Z,66.27
2022-09-23T09:32:22.685Z,68.15
2022-09-23T09:34:29.034Z,67.98
2022-09-23T09:36:38.159Z,67.34
2022-09-23T09:38:39.616Z,69.05
2022-09-23T09:40:45.933Z,65.17
2022-09-23T09:42:50.283Z,66.45
2022-09-23T09:44:56.467Z,67.24
2022-09-23T09:47:14.486Z,64.82
2022-09-23T09:49:26.024Z,66.33
2022-09-23T09:51:28.577Z,63.36
2022-09-23T09:53:31.585Z,64.09
2022-09-23T09:55:33.040Z,63.42
2022-09-23T09:57:39.281Z,63.01
2022-09-23T09:59:42.482Z,61.79
2022-09-23T10:01:44.933Z,62.15
2022-09-23T10:03:47.432Z,60.05
2022-09-23T10:05:50.749Z,59.47
2022-09-23T10:07:52.683Z,60.54
2022-09-23T10:09:58.354Z,59.13
2022-09-23T10:12:11.851Z,57.16
2022-09-23T10:14:15.743Z,59.29
2022-09-23T10:16:18.638Z,59.61
2022-09-23T10:18:26.434Z,60.19
2022-09-23T10:20:33.965Z,58.05
2022-09-23T10:22:39.199Z,59.78
2022-09-23T10:24:47.104Z,56.70
2022-09-23T10:26:55.688Z,57.79
2022-09-23T10:28:57.110Z,57.77
2022-09-23T10:31:06.725Z,56.70
2022-09-23T10:33:26.574Z,54.76
2022-09-23T10:35:28.199Z,53.47
2022-09-23T10:37:36.337Z,54.31
2022-09-23T10:39:38.110Z,54.00
2022-09-23T10:41:45.870Z,51.04
2022-09-23T10:44:00.418Z,51.19
2022-09-23T10:46:05.337Z,50.35
2022-09-23T10:48:20.745Z,50.10
2022-09-23T10:50:35.330Z,51.25
2022-09-23T10:52:48.928Z,49.79
2022-09-23T10:55:04.491Z,49.47
2022-09-23T10:57:17.669Z,49.64
2022-09-23T10:59:45.249Z,48.99
2022-09-23T11:01:55.026Z,51.65
2022-09-23T11:04:28.295Z,51.15
2022-09-23T11:06:42.385Z,51.52
2022-09-23T11:08:58.958Z,53.00
2022-09-23T11:11:09.603Z,52.19
2022-09-23T11:13:23.407Z,52.64
2022-09-23T11:15:35.591Z,50.22
2022-09-23T11:17:55.840Z,50.06
2022-09-23T11:20:03.414Z,51.14
2022-09-23T11:22:15.632Z,49.74
2022-09-23T11:24:35.400Z,49.84
2022-09-23T11:26:45.082Z,48.48
2022-09-23T11:29:03.093Z,47.69
2022-09-23T11:31:17.257Z,49.02
2022-09-23T11:33:35.333Z,46.11
2022-09-23T11:35:45.040Z,44.12
2022-09-23T11:37:51.092Z,43.47
2022-09-23T11:39:58.960Z,42.21
2022-09-23T11:42:02.800Z,42.61
2022-09-23T11:44:11.670Z,43.88
2022-09-23T11:46:23.548Z,43.43
2022-09-23T11:48:30.471Z,43.54
2022-09-23T11:50:36.418Z,46.03
2022-09-23T11:52:44.863Z,46.85
2022-09-23T11:54:51.465Z,48.40
2022-09-23T11:56:58.645Z,47.35
2022-09-23T11:59:10.284Z,46.32
2022-09-23T12:01:18.844Z,48.44
2022-09-23T12:03:36.901Z,46.50
2022-09-23T12:05:47.316Z,46.33
2022-09-23T12:07:55.528Z,47.49
2022-09-23T12:10:02.019Z,47.27
2022-09-23T12:12:12.458Z,45.63
2022-09-23T12:14:22.109Z,45.28
2022-09-23T12:16:34.981Z,44.23
2022-09-23T12:18:50.478Z,43.96
2022-09-23T12:23:49.115Z,45.01
2022-09-23T12:25:54.899Z,44.16
2022-09-23T12:28:02.593Z,44.32
2022-09-23T12:30:12.337Z,45.26
2022-09-23T12:32:17.615Z,43.58
2022-09-23T12:34:24.720Z,43.21
2022-09-23T12:36:29.765Z,43.57
2022-09-23T12:38:34.608Z,44.09
2022-09-23T12:40:38.166Z,43.57
2022-09-23T12:42:44.245Z,43.40
2022-09-23T12:44:48.055Z,43.49
2022-09-23T12:47:27.919Z,44.31
2022-09-23T12:49:36.794Z,45.78
2022-09-23T12:51:38.245Z,42.83
2022-09-23T12:54:18.936Z,45.06
2022-09-23T12:56:24.486Z,44.47
2022-09-23T12:58:37.933Z,42.47
2022-09-23T13:00:39.407Z,42.91
2022-09-23T13:02:43.522Z,42.56
2022-09-23T13:04:56.424Z,42.87
2022-09-23T13:07:06.062Z,41.72
2022-09-23T13:09:13.123Z,41.76
2022-09-23T13:11:21.679Z,42.46
2022-09-23T13:13:28.367Z,40.59
2022-09-23T13:15:31.819Z,41.60
2022-09-23T13:17:37.271Z,42.44
2022-09-23T13:19:44.995Z,42.53
2022-09-23T13:22:05.059Z,42.48
2022-09-23T13:24:20.772Z,42.78
2022-09-23T13:26:22.843Z,42.57
2022-09-23T13:28:33.755Z,42.86
2022-09-23T13:30:35.297Z,41.79
2022-09-23T13:32:41.552Z,41.59
2022-09-23T13:34:45.967Z,41.46
2022-09-23T13:36:48.467Z,42.21
2022-09-23T13:38:49.964Z,44.00
2022-09-23T13:40:53.586Z,43.85
2022-09-23T13:43:00.168Z,45.46
2022-09-23T13:45:03.314Z,44.86
2022-09-23T13:47:04.940Z,42.40
2022-09-23T13:49:18.511Z,44.55
2022-09-23T13:51:23.443Z,44.83
2022-09-23T13:53:28.937Z,44.91
2022-09-23T13:55:32.366Z,43.91
2022-09-23T13:57:34.772Z,44.53
2022-09-23T13:59:38.211Z,43.81
2022-09-23T14:01:41.184Z,44.33
2022-09-23T14:03:42.609Z,44.33
2022-09-23T14:05:45.090Z,43.85
2022-09-23T14:07:46.790Z,44.62
2022-09-23T14:09:51.117Z,45.20
2022-09-23T14:11:54.069Z,45.92
2022-09-23T14:13:56.497Z,46.61
2022-09-23T14:15:59.619Z,44.81
2022-09-23T14:18:06.418Z,45.47
2022-09-23T14:20:14.245Z,44.85
2022-09-23T14:22:24.792Z,45.61
2022-09-23T14:24:33.450Z,45.46
2022-09-23T14:26:35.013Z,44.87
2022-09-23T14:28:36.862Z,45.19
2022-09-23T14:30:38.581Z,45.65
2022-09-23T14:32:40.293Z,45.95
2022-09-23T14:34:45.463Z,46.71
2022-09-23T14:36:47.211Z,46.53
2022-09-23T14:38:48.716Z,46.01
2022-09-23T14:40:51.856Z,46.47
2022-09-23T14:42:59.168Z,47.31
2022-09-23T14:45:00.627Z,47.29
2022-09-23T14:47:02.208Z,48.38
2022-09-23T14:49:06.635Z,46.99
2022-09-23T14:51:14.630Z,48.18
2022-09-23T14:53:39.291Z,48.75
2022-09-23T14:55:40.827Z,49.02
2022-09-23T14:57:43.199Z,49.94
2022-09-23T14:59:50.969Z,50.04
2022-09-23T15:01:52.656Z,50.30
2022-09-23T15:03:55.678Z,49.73
2022-09-23T15:06:05.054Z,48.65
2022-09-23T15:08:14.052Z,49.74
2022-09-23T15:10:22.853Z,50.20
2022-09-23T15:12:25.226Z,50.25
2022-09-23T15:14:38.667Z,50.04
2022-09-23T15:16:40.998Z,50.16
2022-09-23T15:18:44.606Z,50.61
2022-09-23T15:20:49.839Z,50.87
2022-09-23T15:22:53.355Z,50.07
2022-09-23T15:25:11.198Z,55.01
2022-09-23T15:27:28.869Z,53.83
2022-09-23T15:29:30.349Z,53.36
2022-09-23T15:31:31.805Z,56.43
2022-09-23T15:33:33.489Z,54.65
2022-09-23T15:35:36.270Z,51.71
2022-09-23T15:37:37.908Z,51.13
2022-09-23T15:39:39.433Z,55.30
2022-09-23T15:41:42.224Z,57.60
2022-09-23T15:43:43.770Z,51.68
2022-09-23T15:45:47.332Z,50.66
2022-09-23T15:47:50.429Z,50.14
2022-09-23T15:49:51.957Z,49.88
2022-09-23T15:51:53.508Z,51.07
2022-09-23T15:53:55.313Z,50.68
2022-09-23T15:55:56.929Z,50.55
2022-09-23T15:58:00.037Z,51.21
2022-09-23T16:00:01.734Z,50.78
2022-09-23T16:02:07.716Z,51.12
2022-09-23T16:04:09.870Z,51.29
2022-09-23T16:06:12.296Z,51.56
2022-09-23T16:08:14.607Z,51.39
2022-09-23T16:10:16.341Z,52.16
2022-09-23T16:12:17.943Z,53.05
2022-09-23T16:14:20.780Z,52.87
2022-09-23T16:16:22.454Z,53.46
2022-09-23T16:18:23.933Z,52.70
2022-09-23T16:20:26.428Z,53.67
2022-09-23T16:22:27.966Z,53.87
2022-09-23T16:24:29.603Z,53.83
2022-09-23T16:26:33.910Z,54.10
2022-09-23T16:28:35.511Z,53.91
2022-09-23T16:30:38.335Z,54.16
2022-09-23T16:32:39.780Z,54.33
2022-09-23T16:34:41.444Z,54.94
2022-09-23T16:36:43.429Z,55.24
2022-09-23T16:38:44.906Z,55.54
2022-09-23T16:40:47.423Z,56.07
2022-09-23T16:42:50.129Z,56.73
2022-09-23T16:44:51.646Z,56.54
2022-09-23T16:46:54.491Z,57.03
2022-09-23T16:48:56.085Z,57.45
2022-09-23T16:50:57.575Z,58.52
2022-09-23T16:52:59.124Z,59.69
2022-09-23T16:55:00.616Z,60.29
2022-09-23T16:57:02.123Z,60.31
2022-09-23T16:59:04.142Z,61.39
2022-09-23T17:01:07.352Z,62.34
2022-09-23T17:03:12.392Z,63.25
2022-09-23T17:05:13.955Z,63.45
2022-09-23T17:07:15.396Z,64.07
2022-09-23T17:09:17.823Z,64.65
2022-09-23T17:11:20.143Z,65.46
2022-09-23T17:13:21.701Z,66.38
2022-09-23T17:15:23.297Z,67.21
2022-09-23T17:17:24.868Z,67.63
2022-09-23T17:19:27.642Z,68.00
2022-09-23T17:21:29.164Z,68.77
2022-09-23T17:23:32.068Z,69.11
2022-09-23T17:25:34.017Z,69.09
2022-09-23T17:27:35.585Z,69.07
2022-09-23T17:29:37.061Z,69.27
2022-09-23T17:31:38.624Z,69.80
2022-09-23T17:33:40.157Z,70.22
2022-09-23T17:35:43.088Z,70.73
2022-09-23T17:37:44.661Z,70.84
2022-09-23T17:39:46.141Z,70.85
2022-09-23T17:41:47.654Z,71.46
2022-09-23T17:43:54.117Z,70.30
2022-09-23T17:45:57.186Z,70.64
2022-09-23T17:47:58.711Z,70.83
2022-09-23T17:50:00.312Z,71.00
2022-09-23T17:52:03.886Z,70.99
2022-09-23T17:54:05.664Z,71.30
2022-09-23T17:56:11.349Z,71.42
2022-09-23T17:58:12.820Z,71.41
2022-09-23T18:00:14.606Z,71.79
2022-09-23T18:02:16.175Z,72.20
2022-09-23T18:04:17.690Z,72.63
2022-09-23T18:06:21.172Z,72.73
2022-09-23T18:08:23.984Z,72.44
2022-09-23T18:10:25.433Z,72.31
2022-09-23T18:12:26.994Z,73.18
2022-09-23T18:14:28.554Z,72.90
2022-09-23T18:16:33.972Z,73.37
2022-09-23T18:18:35.547Z,72.72
2022-09-23T18:20:37.018Z,73.15
2022-09-23T18:22:38.606Z,72.61
2022-09-23T18:24:41.508Z,73.23
2022-09-23T18:26:43.132Z,72.67
2022-09-23T18:28:44.631Z,73.58
2022-09-23T18:30:52.733Z,73.14
2022-09-23T18:32:54.198Z,73.21
2022-09-23T18:34:55.738Z,72.81
2022-09-23T18:36:57.455Z,73.67
2022-09-23T18:38:59.201Z,73.28
2022-09-23T18:41:02.141Z,74.08
2022-09-23T18:43:03.756Z,74.02
2022-09-23T18:45:07.229Z,74.39
2022-09-23T18:47:08.722Z,75.05
2022-09-23T18:49:10.219Z,75.13
2022-09-23T18:51:13.548Z,75.54
2022-09-23T18:53:15.043Z,74.83
2022-09-23T18:55:17.527Z,74.86
2022-09-23T18:57:20.364Z,74.94
2022-09-23T18:59:24.251Z,75.37
2022-09-23T19:01:26.137Z,75.11
2022-09-23T19:03:27.727Z,75.56
2022-09-23T19:05:29.366Z,75.42
2022-09-23T19:07:31.170Z,76.07
2022-09-23T19:09:32.666Z,75.43
2022-09-23T19:11:34.866Z,76.06
2022-09-23T19:13:37.715Z,76.61
2022-09-23T19:15:39.188Z,76.70
2022-09-23T19:17:40.655Z,77.41
2022-09-23T19:19:42.186Z,77.36
2022-09-23T19:21:43.793Z,77.99
2022-09-23T19:23:46.825Z,78.15
2022-09-23T19:25:48.607Z,78.07
2022-09-23T19:27:50.057Z,78.65
2022-09-23T19:29:52.880Z,78.93
2022-09-23T19:31:54.364Z,78.55
2022-09-23T19:33:58.687Z,79.10
2022-09-23T19:36:00.502Z,78.97
2022-09-23T19:38:02.064Z,79.65
2022-09-23T19:40:04.115Z,79.59
2022-09-23T19:42:05.572Z,80.06
2022-09-23T19:44:07.152Z,80.07
2022-09-23T19:46:10.217Z,80.49
2022-09-23T19:48:11.700Z,80.30
2022-09-23T19:50:13.304Z,80.49
2022-09-23T19:52:14.746Z,81.14
2022-09-23T19:54:16.282Z,81.32
2022-09-23T19:56:18.397Z,81.55
2022-09-23T19:58:19.956Z,81.69
2022-09-23T20:00:21.474Z,81.84
2022-09-23T20:02:24.388Z,82.06
2022-09-23T20:04:25.891Z,82.34
2022-09-23T20:06:29.114Z,82.10
2022-09-23T20:08:30.884Z,82.62
2022-09-23T20:10:32.357Z,83.05
2022-09-23T20:12:33.654Z,83.27
2022-09-23T20:14:35.133Z,83.39
2022-09-23T20:16:36.873Z,83.61
2022-09-23T20:18:41.299Z,83.85
2022-09-23T20:20:42.764Z,84.26
2022-09-23T20:22:44.230Z,84.69
2022-09-23T20:24:45.674Z,84.66
2022-09-23T20:26:47.000Z,85.11
2022-09-23T20:28:49.857Z,85.14
2022-09-23T20:30:51.308Z,85.28
2022-09-23T20:32:52.670Z,85.93
2022-09-23T20:34:55.530Z,85.90
2022-09-23T20:36:56.968Z,86.03
2022-09-23T20:38:59.307Z,86.38
2022-09-23T20:41:00.769Z,86.80
2022-09-23T20:43:02.319Z,86.94
2022-09-23T20:45:04.473Z,87.06
2022-09-23T20:47:06.222Z,86.85
2022-09-23T20:49:07.676Z,87.06
2022-09-23T20:51:10.595Z,87.13
2022-09-23T20:53:12.202Z,87.20
2022-09-23T20:55:13.778Z,86.39
2022-09-23T20:57:15.258Z,86.97
2022-09-23T20:59:16.764Z,87.36
2022-09-23T21:01:18.864Z,87.11
2022-09-23T21:03:20.567Z,87.31
2022-09-23T21:05:22.142Z,87.57
2022-09-23T21:07:24.961Z,87.29
2022-09-23T21:09:27.248Z,87.06
2022-09-23T21:11:28.751Z,86.89
2022-09-23T21:13:31.208Z,87.21
2022-09-23T21:15:34.582Z,87.55
2022-09-23T21:17:36.044Z,87.47
2022-09-23T21:19:37.470Z,87.36
2022-09-23T21:21:38.898Z,87.36
2022-09-23T21:23:42.241Z,86.79
2022-09-23T21:25:45.046Z,87.03
2022-09-23T21:27:51.872Z,87.28
2022-09-23T21:29:53.337Z,87.35
2022-09-23T21:31:54.965Z,87.20
2022-09-23T21:33:58.009Z,87.01
2022-09-23T21:36:00.131Z,87.02
2022-09-23T21:38:01.609Z,87.09
2022-09-23T21:40:05.523Z,87.58
2022-09-23T21:42:06.994Z,87.28
2022-09-23T21:44:08.685Z,87.06
2022-09-23T21:46:12.294Z,86.65
2022-09-23T21:48:13.878Z,86.75
2022-09-23T21:50:15.384Z,86.67
2022-09-23T21:52:16.838Z,87.04
2022-09-23T21:54:18.299Z,85.83
2022-09-23T21:56:22.393Z,86.19
2022-09-23T21:58:23.870Z,86.69
2022-09-23T22:00:25.501Z,86.74
2022-09-23T22:02:27.137Z,86.86
2022-09-23T22:04:28.652Z,86.37
2022-09-23T22:06:31.082Z,86.12
2022-09-23T22:08:34.255Z,86.13
2022-09-23T22:10:36.375Z,86.71
2022-09-23T22:12:39.170Z,86.72
2022-09-23T22:14:40.760Z,86.78
2022-09-23T22:16:42.737Z,86.59
2022-09-23T22:18:44.163Z,86.77
2022-09-23T22:20:45.493Z,86.40
2022-09-23T22:22:46.998Z,86.33
2022-09-23T22:24:48.641Z,86.83
2022-09-23T22:26:50.140Z,86.86
2022-09-23T22:28:53.014Z,86.76
2022-09-23T22:30:54.513Z,86.32
2022-09-23T22:32:56.010Z,86.72
2022-09-23T22:34:57.574Z,86.91
2022-09-23T22:37:00.308Z,86.73
2022-09-23T22:39:01.782Z,86.28
2022-09-23T22:41:03.575Z,86.89
2022-09-23T22:43:05.198Z,87.20
2022-09-23T22:45:10.285Z,87.23
2022-09-23T22:47:11.753Z,87.21
2022-09-23T22:49:14.270Z,87.30
2022-09-23T22:51:16.049Z,87.33
2022-09-23T22:53:17.600Z,87.26
2022-09-23T22:55:19.054Z,87.67
2022-09-23T22:57:20.352Z,87.69
2022-09-23T22:59:21.887Z,87.68
2022-09-23T23:01:24.725Z,87.84
2022-09-23T23:03:26.306Z,87.44
2022-09-23T23:05:27.837Z,88.40
2022-09-23T23:07:29.328Z,88.71
2022-09-23T23:09:30.786Z,89.13
2022-09-23T23:11:32.246Z,89.87
2022-09-23T23:13:33.553Z,90.08
2022-09-23T23:15:38.088Z,89.73
2022-09-23T23:17:40.923Z,90.12
2022-09-23T23:19:42.355Z,89.52
2022-09-23T23:21:44.225Z,89.59
2022-09-23T23:23:47.412Z,89.69
2022-09-23T23:25:49.011Z,89.11
2022-09-23T23:27:50.459Z,89.40
2022-09-23T23:29:51.792Z,89.48
2022-09-23T23:31:53.280Z,89.96
2022-09-23T23:33:56.640Z,89.79
2022-09-23T23:35:58.107Z,90.15
2022-09-23T23:37:59.680Z,90.02
2022-09-23T23:40:01.414Z,89.93
2022-09-23T23:42:03.074Z,90.55
2022-09-23T23:44:04.945Z,90.90
2022-09-23T23:46:07.638Z,90.83
2022-09-23T23:48:09.198Z,91.89
2022-09-23T23:50:12.048Z,92.72
2022-09-23T23:52:13.531Z,92.30
2022-09-23T23:54:15.481Z,92.76
2022-09-23T23:56:18.905Z,92.88
2022-09-23T23:58:20.456Z,93.25
